Time;durP1;ratioP1;P1;durP2;ratioP2;P2;SDS_P1;SDS_P2;PMS_P1;PMS_P2;Temp;Humidity;BMP_temperature;BMP_pressure;BME280_temperature;BME280_humidity;BME280_pressure;Samples;Min_cycle;Max_cycle;Signal;HPM_P1;HPM_P2
2021/11/08 00:02:00;;;;;;;8.50;4.60;;;;;;;6.86;75.44;99459.86;228909;1192;139035;-81
2021/11/08 00:07:07;;;;;;;6.70;5.00;;;;;;;6.92;75.46;99459.44;229846;1191;140171;-75
2021/11/08 00:12:11;;;;;;;6.20;4.50;;;;;;;6.95;75.39;99458.73;228913;1192;139040;-78
2021/11/08 00:22:39;;;;;;;9.20;5.10;;;;;;;6.97;75.61;99463.19;229844;1191;139885;-78
2021/11/08 00:27:47;;;;;;;9.50;5.40;;;;;;;6.96;75.64;99469.77;228588;1192;139083;-70
2021/11/08 00:33:03;;;;;;;;;;;;;;;;;;;;;
2021/11/08 00:38:08;;;;;;;34.70;5.50;;;;;;;6.96;75.53;99477.10;230357;1191;139735;-83
2021/11/08 00:43:19;;;;;;;7.90;4.20;;;;;;;7.01;75.87;99475.89;229764;1192;139945;-74
2021/11/08 00:48:25;;;;;;;8.00;5.20;;;;;;;7.01;75.40;99472.58;230214;1191;141670;-72
2021/11/08 00:53:30;;;;;;;10.20;4.70;;;;;;;7.03;75.62;99470.15;228453;1192;140061;-69
2021/11/08 00:58:36;;;;;;;5.20;2.90;;;;;;;7.05;75.65;99468.12;230216;1191;139854;-76
2021/11/08 01:03:44;;;;;;;6.80;4.00;;;;;;;7.04;75.61;99476.08;231218;1191;139853;-75
2021/11/08 01:08:47;;;;;;;6.80;4.80;;;;;;;7.04;75.21;99475.70;230222;1191;140339;-80
2021/11/08 01:13:50;;;;;;;5.10;4.00;;;;;;;7.07;75.58;99475.64;229785;1191;141671;-82
2021/11/08 01:18:54;;;;;;;7.50;5.20;;;;;;;7.07;75.76;99479.17;229724;1192;140073;-73
2021/11/08 01:24:04;;;;;;;7.40;4.60;;;;;;;7.07;75.70;99487.22;228867;1192;152057;-70
2021/11/08 01:29:09;;;;;;;10.10;4.50;;;;;;;7.04;75.49;99480.68;230357;1191;140681;-78
2021/11/08 01:34:13;;;;;;;7.30;4.20;;;;;;;7.03;75.56;99479.11;229720;1192;139617;-77
2021/11/08 01:39:31;;;;;;;6.70;3.40;;;;;;;7.02;75.39;99473.58;230226;1191;139520;-77
2021/11/08 01:44:59;;;;;;;5.80;2.90;;;;;;;7.04;75.77;99475.42;229596;1191;139211;-72
2021/11/08 01:50:23;;;;;;;5.50;4.10;;;;;;;7.03;75.68;99483.23;229818;1192;139421;-76
2021/11/08 01:55:40;;;;;;;4.00;3.40;;;;;;;7.03;75.59;99483.77;229157;1191;141124;-75
2021/11/08 02:00:55;;;;;;;5.60;4.50;;;;;;;7.04;75.52;99489.63;229330;1191;139351;-74
2021/11/08 02:05:59;;;;;;;7.40;4.10;;;;;;;7.03;76.03;99494.48;229562;1192;204621;-71
2021/11/08 02:11:06;;;;;;;6.40;3.50;;;;;;;7.07;76.12;99499.09;229234;1192;140433;-73
2021/11/08 02:16:15;;;;;;;6.00;3.70;;;;;;;7.10;75.99;99502.44;230254;1191;151568;-72
2021/11/08 02:21:24;;;;;;;9.30;5.10;;;;;;;7.07;75.71;99501.98;229510;1191;140016;-73
2021/11/08 02:26:28;;;;;;;6.10;4.90;;;;;;;7.09;75.79;99500.70;230332;1191;140094;-71
2021/11/08 02:31:44;;;;;;;6.90;4.00;;;;;;;7.13;75.51;99503.61;230504;1191;139266;-73
2021/11/08 02:36:56;;;;;;;10.90;5.40;;;;;;;7.14;76.13;99511.96;229863;1191;138640;-79
2021/11/08 02:42:15;;;;;;;5.70;5.10;;;;;;;7.15;75.62;99515.30;229455;1192;140201;-78
2021/11/08 02:47:40;;;;;;;;;;;;;;;;;;;;;
2021/11/08 02:52:44;;;;;;;5.00;3.50;;;;;;;7.20;75.75;99528.17;230973;1191;139228;-73
2021/11/08 02:57:49;;;;;;;7.40;4.40;;;;;;;7.20;75.75;99534.87;231354;1191;138744;-74
2021/11/08 03:02:53;;;;;;;3.80;2.80;;;;;;;7.24;75.71;99538.02;231162;1191;140782;-75
2021/11/08 03:07:59;;;;;;;7.70;3.80;;;;;;;7.18;75.40;99539.70;231161;1191;140994;-74
2021/11/08 03:13:11;;;;;;;10.30;4.30;;;;;;;7.20;75.27;99547.96;231212;1191;139958;-75
2021/11/08 03:18:28;;;;;;;9.30;4.00;;;;;;;7.23;75.02;99554.23;230755;1191;141168;-79
2021/11/08 03:23:43;;;;;;;4.20;3.10;;;;;;;7.22;75.38;99549.38;230144;1192;233499;-74
2021/11/08 03:28:47;;;;;;;10.70;3.20;;;;;;;7.26;75.22;99551.70;229122;1191;140343;-74
2021/11/08 03:33:53;;;;;;;8.40;3.60;;;;;;;7.27;75.21;99555.25;229935;1192;140624;-77
2021/11/08 03:38:57;;;;;;;7.90;2.60;;;;;;;7.27;75.41;99557.58;230010;1191;140700;-77
2021/11/08 03:44:04;;;;;;;5.90;3.60;;;;;;;7.26;75.33;99562.48;229696;1191;141167;-76
2021/11/08 03:49:15;;;;;;;5.80;3.60;;;;;;;7.25;75.11;99562.77;229053;1193;140008;-73
2021/11/08 03:54:19;;;;;;;8.50;3.20;;;;;;;7.23;75.22;99566.05;229485;1192;139870;-80
2021/11/08 03:59:27;;;;;;;9.10;3.50;;;;;;;7.18;75.33;99570.12;229636;1192;139756;-81
2021/11/08 04:04:38;;;;;;;8.20;3.70;;;;;;;7.18;75.41;99569.05;229388;1191;139346;-76
2021/11/08 04:09:45;;;;;;;3.60;2.90;;;;;;;7.19;75.40;99571.67;229822;1191;140092;-75
2021/11/08 04:14:52;;;;;;;4.80;2.80;;;;;;;7.17;75.26;99571.67;229047;1191;141056;-74
2021/11/08 04:20:00;;;;;;;9.20;3.90;;;;;;;7.15;75.40;99575.73;228400;1192;139309;-73
2021/11/08 04:25:11;;;;;;;7.90;3.70;;;;;;;7.17;74.94;99577.23;229554;1192;141521;-74
2021/11/08 04:30:25;;;;;;;16.00;3.70;;;;;;;7.15;75.24;99579.81;229291;1191;140574;-73
2021/11/08 04:41:31;;;;;;;4.60;3.30;;;;;;;7.12;75.02;99580.24;229556;1192;140467;-75
2021/11/08 04:52:25;;;;;;;9.80;3.90;;;;;;;7.14;75.17;99584.02;228394;1192;139997;-76
2021/11/08 04:57:54;;;;;;;6.30;4.30;;;;;;;7.13;75.23;99590.27;229964;1191;139424;-74
2021/11/08 05:30:12;;;;;;;4.10;2.50;;;;;;;7.22;75.22;99621.44;229690;1192;140776;-76
2021/11/08 05:35:16;;;;;;;19.40;3.80;;;;;;;7.22;74.84;99626.66;229458;1191;141515;-75
2021/11/08 05:40:28;;;;;;;8.10;3.20;;;;;;;7.18;75.05;99631.26;229676;1188;141072;-76
2021/11/08 05:45:32;;;;;;;11.30;4.40;;;;;;;7.16;74.93;99634.66;229682;1192;140766;-78
2021/11/08 05:50:40;;;;;;;9.90;4.60;;;;;;;7.17;75.34;99642.35;229979;1191;141117;-79
2021/11/08 05:56:08;;;;;;;8.30;3.90;;;;;;;7.16;75.37;99646.56;228825;1192;139635;-76
2021/11/08 06:50:04;;;;;;;8.50;5.70;;;;;;;6.89;77.13;99724.48;228663;1192;140657;-72
2021/11/08 06:55:11;;;;;;;6.80;6.10;;;;;;;6.92;77.49;99728.50;228756;1192;140865;-72
2021/11/08 07:00:17;;;;;;;7.70;5.70;;;;;;;6.89;77.43;99734.75;230180;1192;139633;-84
2021/11/08 07:05:20;;;;;;;11.80;6.00;;;;;;;6.88;77.53;99739.77;230263;1192;142381;-73
2021/11/08 07:10:23;;;;;;;9.70;5.80;;;;;;;6.94;77.95;99750.67;229595;1192;141417;-78
2021/11/08 07:15:26;;;;;;;6.50;5.70;;;;;;;7.02;77.51;99758.63;231323;1191;140399;-77
2021/11/08 07:20:32;;;;;;;15.10;5.20;;;;;;;7.04;77.98;99765.00;229589;1191;139647;-75
2021/11/08 07:25:37;;;;;;;12.30;5.10;;;;;;;7.10;77.92;99770.45;230944;1191;139895;-75
2021/11/08 07:30:52;;;;;;;7.10;6.30;;;;;;;7.15;77.65;99777.56;230203;1192;140819;-75
2021/11/08 07:35:56;;;;;;;9.80;5.80;;;;;;;7.20;77.58;99784.81;229999;1192;139988;-76
2021/11/08 07:41:00;;;;;;;11.60;6.20;;;;;;;7.18;77.95;99790.52;229973;1191;142054;-75
2021/11/08 07:46:24;;;;;;;9.80;5.50;;;;;;;7.22;78.02;99789.61;230416;1192;140684;-78
2021/11/08 07:51:31;;;;;;;8.10;5.60;;;;;;;7.28;77.91;99795.63;228939;1191;140566;-76
2021/11/08 07:56:34;;;;;;;9.60;5.50;;;;;;;7.30;77.64;99805.86;229632;1191;140359;-71
2021/11/08 08:01:37;;;;;;;8.00;5.40;;;;;;;7.31;77.95;99809.32;228759;1192;140548;-72
2021/11/08 08:06:40;;;;;;;10.90;6.90;;;;;;;7.34;77.58;99810.77;229035;1192;141215;-72
2021/11/08 08:11:43;;;;;;;7.70;4.80;;;;;;;7.33;77.97;99811.36;229489;1192;139464;-74
2021/11/08 08:16:46;;;;;;;5.40;3.90;;;;;;;7.45;78.09;99820.41;229292;1191;140477;-72
2021/11/08 08:21:50;;;;;;;14.10;8.10;;;;;;;7.65;78.09;99820.13;228694;1193;209000;-75
2021/11/08 08:26:53;;;;;;;8.40;7.00;;;;;;;7.76;77.99;99829.97;229187;1184;141397;-74
2021/11/08 08:32:09;;;;;;;10.20;6.40;;;;;;;7.74;77.96;99830.73;229497;1192;139831;-78
2021/11/08 08:37:39;;;;;;;;;;;;;;;;;;;;;
2021/11/08 08:42:43;;;;;;;9.00;8.10;;;;;;;7.87;78.04;99834.54;229211;1192;140642;-70
2021/11/08 08:47:46;;;;;;;6.30;5.60;;;;;;;7.89;77.72;99838.16;230364;1192;140920;-75
2021/11/08 08:52:50;;;;;;;8.00;6.30;;;;;;;7.80;77.71;99849.92;229689;1192;140755;-83
2021/11/08 08:57:55;;;;;;;8.50;7.70;;;;;;;7.78;77.89;99861.54;230190;1191;141389;-83
2021/11/08 09:02:59;;;;;;;9.40;7.30;;;;;;;7.79;78.08;99869.77;229412;1192;140234;-73
2021/11/08 09:08:03;;;;;;;11.10;6.90;;;;;;;7.71;77.98;99878.26;229684;1192;139633;-79
2021/11/08 09:13:06;;;;;;;8.20;6.50;;;;;;;7.67;78.26;99879.17;230113;1192;140054;-79
2021/11/08 09:18:11;;;;;;;12.30;8.80;;;;;;;7.64;78.26;99883.98;230104;1192;141171;-80
2021/11/08 09:23:18;;;;;;;11.80;8.50;;;;;;;7.61;78.39;99884.77;230784;1191;141137;-76
2021/11/08 09:28:21;;;;;;;11.00;7.10;;;;;;;7.59;78.33;99892.02;231284;1192;140516;-77
2021/11/08 09:33:26;;;;;;;13.30;9.10;;;;;;;7.62;78.18;99898.56;229872;1192;140366;-80
2021/11/08 09:38:28;;;;;;;13.70;9.40;;;;;;;7.64;78.54;99903.08;229459;1192;151221;-77
2021/11/08 09:43:33;;;;;;;9.40;8.40;;;;;;;7.68;78.57;99902.55;229327;1192;140030;-75
2021/11/08 09:48:41;;;;;;;9.80;8.70;;;;;;;7.74;78.80;99907.55;229792;1191;141168;-78
2021/11/08 09:53:46;;;;;;;13.50;7.20;;;;;;;7.79;78.58;99906.31;229465;1192;140435;-80
2021/11/08 09:58:51;;;;;;;13.50;7.40;;;;;;;7.85;78.84;99910.29;228976;1192;139961;-71
2021/11/08 10:04:08;;;;;;;7.20;6.50;;;;;;;7.96;78.67;99910.66;230327;1192;141871;-76
2021/11/08 10:09:19;;;;;;;10.60;7.80;;;;;;;7.96;78.69;99919.24;229155;1192;139537;-83
2021/11/08 10:14:25;;;;;;;7.00;6.40;;;;;;;7.93;78.59;99923.30;229473;1192;140591;-83
2021/11/08 10:19:39;;;;;;;8.40;7.50;;;;;;;7.89;78.72;99926.36;229864;1192;141087;-70
2021/11/08 10:24:57;;;;;;;;;;;;;;;;;;;;;
2021/11/08 10:30:35;;;;;;;9.00;7.30;;;;;;;7.92;78.78;99935.00;229442;1192;140498;-72
2021/11/08 10:35:49;;;;;;;8.70;7.70;;;;;;;7.99;79.11;99937.46;229525;1191;139530;-76
2021/11/08 10:41:07;;;;;;;13.30;11.00;;;;;;;8.02;78.86;99943.98;229411;1192;139392;-75
2021/11/08 10:46:16;;;;;;;22.30;15.30;;;;;;;7.98;78.94;99943.07;229551;1191;141765;-72
2021/11/08 10:51:22;;;;;;;14.00;10.30;;;;;;;8.04;79.01;99942.96;228399;1192;140974;-73
2021/11/08 10:56:35;;;;;;;15.20;12.60;;;;;;;8.04;79.17;99940.83;229746;1191;142651;-76
2021/11/08 11:01:44;;;;;;;11.20;7.60;;;;;;;8.06;78.98;99939.48;229710;1192;142742;-69
2021/11/08 11:06:51;;;;;;;11.40;10.30;;;;;;;8.04;78.86;99941.81;229216;1192;140306;-70
2021/11/08 11:12:14;;;;;;;8.50;6.80;;;;;;;8.07;79.30;99942.36;230361;1191;140938;-73
2021/11/08 11:17:26;;;;;;;6.90;5.50;;;;;;;8.18;79.01;99949.02;230988;1192;140197;-72
2021/11/08 11:22:29;;;;;;;11.00;6.90;;;;;;;8.24;78.94;99952.46;229251;1192;141385;-72
2021/11/08 11:27:46;;;;;;;;;;;;;;;;;;;;;
2021/11/08 11:33:05;;;;;;;7.30;6.00;;;;;;;8.41;78.87;99953.50;230432;1192;162687;-79
2021/11/08 11:38:28;;;;;;;5.60;4.80;;;;;;;8.49;78.68;99954.64;230061;1192;140463;-69
2021/11/08 11:43:37;;;;;;;5.10;4.60;;;;;;;8.49;78.58;99955.01;228994;1192;140035;-71
2021/11/08 11:48:46;;;;;;;12.20;7.00;;;;;;;8.46;78.54;99954.66;230249;1192;139307;-73
2021/11/08 11:53:50;;;;;;;8.60;6.20;;;;;;;8.50;78.66;99964.93;230162;1192;139797;-84
2021/11/08 11:59:04;;;;;;;7.70;6.90;;;;;;;8.52;78.45;99969.04;230213;1192;140609;-73
2021/11/08 12:04:08;;;;;;;4.40;4.10;;;;;;;8.61;78.39;99978.29;229942;1192;139032;-78
2021/11/08 12:09:37;;;;;;;7.80;6.50;;;;;;;8.63;78.14;99980.40;229343;1192;139733;-82
2021/11/08 12:15:08;;;;;;;8.50;6.90;;;;;;;8.61;78.12;99982.25;229384;1193;140630;-75
2021/11/08 12:20:15;;;;;;;7.50;6.80;;;;;;;8.59;78.02;99984.88;230434;1191;141238;-73
2021/11/08 12:25:22;;;;;;;11.10;6.30;;;;;;;8.63;78.35;99991.27;229207;1192;140215;-73
2021/11/08 12:30:38;;;;;;;7.90;6.00;;;;;;;8.66;78.40;99995.17;229669;1192;139025;-77
2021/11/08 12:35:48;;;;;;;6.80;5.40;;;;;;;8.72;78.48;99994.28;229955;1192;139240;-73
2021/11/08 12:41:39;;;;;;;;;;;;;;;;;;;;;
2021/11/08 12:47:04;;;;;;;6.40;5.90;;;;;;;8.66;78.12;99998.28;229927;1192;139511;-79
2021/11/08 12:52:13;;;;;;;8.00;7.20;;;;;;;8.68;78.14;100003.14;229083;1191;139735;-71
2021/11/08 12:57:18;;;;;;;6.00;5.30;;;;;;;8.74;77.85;99996.27;230297;1191;140693;-84
2021/11/08 13:02:26;;;;;;;6.40;5.60;;;;;;;8.75;78.00;99997.53;229368;1192;141689;-78
2021/11/08 13:07:42;;;;;;;12.40;6.00;;;;;;;8.73;78.00;100007.31;228818;1192;139890;-74
2021/11/08 13:12:46;;;;;;;6.90;6.20;;;;;;;8.74;77.96;100004.52;229894;1191;141634;-75
2021/11/08 13:18:00;;;;;;;6.40;5.70;;;;;;;8.74;78.05;100010.54;231287;1192;139824;-77
2021/11/08 13:23:15;;;;;;;4.70;4.30;;;;;;;8.75;77.97;100008.61;230666;1192;152018;-82
2021/11/08 13:28:22;;;;;;;6.90;5.70;;;;;;;8.84;77.70;99999.92;231067;1191;140603;-75
2021/11/08 13:33:37;;;;;;;3.20;2.80;;;;;;;8.94;77.79;100001.26;230750;1191;141197;-79
2021/11/08 13:39:15;;;;;;;;;;;;;;;;;;;;;
2021/11/08 13:44:29;;;;;;;7.70;5.60;;;;;;;9.03;77.29;100005.23;231016;1191;141266;-74
2021/11/08 13:49:36;;;;;;;7.80;5.10;;;;;;;9.02;77.25;100008.15;229093;1192;140976;-71
2021/11/08 13:54:47;;;;;;;7.70;6.70;;;;;;;9.00;77.18;100011.10;230037;1192;139390;-72
2021/11/08 13:59:58;;;;;;;6.20;5.60;;;;;;;9.00;77.19;100019.50;229039;1192;140449;-75
2021/11/08 14:05:06;;;;;;;7.70;6.80;;;;;;;8.96;77.15;100020.95;229245;1192;140072;-75
2021/11/08 14:10:34;;;;;;;;;;;;;;;;;;;;;
2021/11/08 14:15:57;;;;;;;8.60;5.10;;;;;;;8.89;77.39;100029.14;229254;1192;140130;-75
2021/11/08 14:21:14;;;;;;;6.40;5.80;;;;;;;8.95;77.22;100030.13;229108;1190;140610;-83
2021/11/08 14:26:23;;;;;;;7.80;6.70;;;;;;;8.91;76.99;100031.16;229909;1191;140103;-74
2021/11/08 14:31:42;;;;;;;6.60;6.00;;;;;;;8.83;77.47;100035.52;229212;1191;138951;-76
2021/11/08 14:36:51;;;;;;;7.60;6.80;;;;;;;8.78;77.05;100040.80;228743;1192;139451;-72
2021/11/08 14:42:01;;;;;;;8.40;6.80;;;;;;;8.75;77.21;100039.20;228540;1192;140406;-74
2021/11/08 14:47:16;;;;;;;8.60;7.10;;;;;;;8.70;77.31;100044.83;228848;1188;139733;-69
2021/11/08 14:52:20;;;;;;;8.10;7.30;;;;;;;8.64;77.72;100054.27;229217;1192;142583;-70
2021/11/08 14:57:34;;;;;;;10.30;7.90;;;;;;;8.61;77.69;100056.13;228304;1183;139154;-72
2021/11/08 15:02:37;;;;;;;13.30;8.30;;;;;;;8.63;77.68;100063.52;229171;1191;141452;-72
2021/11/08 15:07:45;;;;;;;8.90;7.00;;;;;;;8.60;77.63;100063.16;230866;1191;140541;-74
2021/11/08 15:12:49;;;;;;;10.60;8.60;;;;;;;8.55;77.75;100070.33;229531;1191;140016;-72
2021/11/08 15:17:55;;;;;;;7.90;6.70;;;;;;;8.55;77.73;100079.92;229860;1192;139423;-70
2021/11/08 15:23:05;;;;;;;9.30;8.10;;;;;;;8.60;77.61;100088.34;229872;1191;141376;-76
2021/11/08 15:28:44;;;;;;;;;;;;;;;;;;;;;
2021/11/08 15:34:03;;;;;;;8.30;7.20;;;;;;;8.59;77.83;100095.05;230360;1191;139797;-76
2021/11/08 15:44:48;;;;;;;10.80;7.90;;;;;;;8.60;77.72;100106.62;231991;1190;140665;-72
2021/11/08 15:49:50;;;;;;;11.30;9.00;;;;;;;8.57;77.84;100110.23;226882;1195;139565;-77
2021/11/08 15:54:53;;;;;;;13.90;9.60;;;;;;;8.56;77.84;100109.35;228459;1196;140179;-74
2021/11/08 15:59:57;;;;;;;13.30;9.80;;;;;;;8.54;77.61;100107.13;227357;1195;140727;-69
2021/11/08 16:04:59;;;;;;;12.00;10.60;;;;;;;8.51;77.83;100113.14;226684;1196;140211;-76
2021/11/08 16:10:13;;;;;;;13.60;10.70;;;;;;;8.46;77.78;100119.73;226565;1196;141559;-72
2021/11/08 16:15:17;;;;;;;13.80;9.60;;;;;;;8.41;78.06;100118.13;226486;1196;142117;-75
2021/11/08 16:20:23;;;;;;;12.30;9.40;;;;;;;8.39;78.08;100121.81;227410;1196;140965;-77
2021/11/08 16:25:27;;;;;;;14.80;10.50;;;;;;;8.35;78.06;100139.52;227267;1196;140582;-75
2021/11/08 16:30:30;;;;;;;16.60;9.90;;;;;;;8.28;78.23;100148.01;227386;1196;140820;-76
2021/11/08 16:35:41;;;;;;;19.20;10.60;;;;;;;8.31;78.33;100150.41;226253;1196;140490;-76
2021/11/08 16:41:18;;;;;;;14.00;10.10;;;;;;;8.31;78.32;100157.85;227349;1196;141300;-68
2021/11/08 16:46:21;;;;;;;18.90;12.30;;;;;;;8.31;78.60;100167.29;227889;1198;141933;-70
2021/11/08 16:51:49;;;;;;;14.50;10.10;;;;;;;8.32;78.46;100166.40;228534;1198;139267;-68
2021/11/08 16:56:52;;;;;;;15.30;10.40;;;;;;;8.40;78.36;100168.02;227007;1198;231796;-73
2021/11/08 17:01:55;;;;;;;13.20;8.70;;;;;;;8.37;78.33;100173.19;229312;1196;140738;-70
2021/11/08 17:07:19;;;;;;;16.30;9.30;;;;;;;8.37;78.45;100176.79;229109;1197;140482;-78
2021/11/08 17:17:53;;;;;;;14.20;9.00;;;;;;;8.40;78.18;100183.42;228694;1197;140017;-68
2021/11/08 17:22:57;;;;;;;13.30;9.20;;;;;;;8.40;78.72;100187.80;225769;1197;140773;-74
2021/11/08 17:28:01;;;;;;;14.80;9.60;;;;;;;8.42;78.43;100193.20;227621;1197;139242;-69
2021/11/08 17:33:31;;;;;;;13.70;9.80;;;;;;;8.46;78.66;100201.78;228947;1197;141526;-71
2021/11/08 17:38:36;;;;;;;13.30;10.20;;;;;;;8.47;78.65;100206.02;227721;1197;142719;-76
2021/11/08 17:43:41;;;;;;;14.10;10.90;;;;;;;8.50;78.50;100213.45;227902;1198;140729;-75
2021/11/08 17:48:44;;;;;;;18.00;12.80;;;;;;;8.56;78.56;100218.08;227434;1198;141394;-70
2021/11/08 17:53:48;;;;;;;18.20;12.30;;;;;;;8.57;78.50;100220.82;227816;1197;139774;-69
2021/11/08 17:58:54;;;;;;;18.30;12.20;;;;;;;8.51;78.55;100222.90;227237;1197;144253;-71
2021/11/08 18:03:57;;;;;;;21.60;11.50;;;;;;;8.50;78.82;100228.16;227304;1197;138928;-75
2021/11/08 18:09:00;;;;;;;16.60;12.30;;;;;;;8.53;78.74;100230.09;226357;1198;141005;-70
2021/11/08 18:14:04;;;;;;;15.00;11.70;;;;;;;8.56;79.01;100236.36;226566;1198;140116;-68
2021/11/08 18:19:07;;;;;;;19.40;12.90;;;;;;;8.54;78.76;100245.24;227757;1198;140016;-71
2021/11/08 18:24:16;;;;;;;22.00;14.70;;;;;;;8.52;79.03;100249.71;226706;1198;140325;-68
2021/11/08 18:29:26;;;;;;;18.50;15.20;;;;;;;8.54;78.98;100254.25;227213;1198;141661;-68
2021/11/08 18:34:31;;;;;;;20.40;14.00;;;;;;;8.56;79.02;100260.76;226738;1198;140689;-72
2021/11/08 18:39:36;;;;;;;19.50;15.70;;;;;;;8.53;78.71;100263.73;227972;1197;140038;-69
2021/11/08 18:44:42;;;;;;;19.70;14.00;;;;;;;8.50;78.80;100269.79;227025;1198;140107;-69
2021/11/08 18:49:45;;;;;;;21.60;14.30;;;;;;;8.53;78.76;100272.11;227459;1198;140803;-68
2021/11/08 18:54:55;;;;;;;24.30;16.00;;;;;;;8.55;78.89;100277.46;227719;1198;142251;-72
2021/11/08 18:59:59;;;;;;;21.20;15.20;;;;;;;8.52;78.83;100277.39;226934;1197;140919;-71
2021/11/08 19:05:14;;;;;;;22.40;14.10;;;;;;;8.52;78.94;100281.64;228433;1198;140046;-69
2021/11/08 19:10:20;;;;;;;23.90;16.60;;;;;;;8.56;78.78;100285.67;229213;1197;140958;-69
2021/11/08 19:15:53;;;;;;;20.90;13.80;;;;;;;8.55;78.95;100293.23;229394;1197;140749;-79
2021/11/08 19:20:59;;;;;;;19.90;14.40;;;;;;;8.50;78.69;100303.10;229516;1197;140855;-71
2021/11/08 19:26:02;;;;;;;18.80;13.30;;;;;;;8.47;78.80;100308.04;229399;1197;140367;-72
2021/11/08 19:31:10;;;;;;;16.40;12.70;;;;;;;8.49;78.63;100306.70;229462;1197;141102;-70
2021/11/08 19:41:54;;;;;;;19.90;14.30;;;;;;;8.52;78.88;100320.71;227403;1198;140661;-73
2021/11/08 19:47:00;;;;;;;24.10;14.20;;;;;;;8.51;78.71;100325.77;226980;1197;141861;-75
2021/11/08 19:52:05;;;;;;;21.30;14.90;;;;;;;8.49;78.71;100328.61;226449;1196;140430;-72
2021/11/08 19:57:31;;;;;;;19.30;13.90;;;;;;;8.41;78.91;100332.16;228935;1198;140112;-72
2021/11/08 20:02:35;;;;;;;19.20;13.80;;;;;;;8.34;78.60;100335.39;226675;1197;140260;-81
2021/11/08 20:07:49;;;;;;;18.00;13.00;;;;;;;8.33;78.82;100338.82;226967;1198;140508;-75
2021/11/08 20:18:27;;;;;;;16.90;11.80;;;;;;;8.29;79.37;100343.93;226759;1198;141034;-78
2021/11/08 20:23:33;;;;;;;14.60;11.00;;;;;;;8.29;79.48;100344.38;227392;1196;139373;-71
2021/11/08 20:28:42;;;;;;;19.00;14.50;;;;;;;8.29;79.24;100347.94;228447;1197;140911;-75
2021/11/08 21:01:37;;;;;;;13.60;10.60;;;;;;;8.19;79.97;100376.61;228016;1197;141398;-68
2021/11/08 21:12:52;;;;;;;10.80;7.90;;;;;;;8.20;79.72;100376.69;229009;1198;139517;-69
2021/11/08 21:17:53;;;;;;;9.60;7.50;;;;;;;8.15;79.93;100387.27;228644;1197;139127;-77
2021/11/08 21:22:56;;;;;;;14.40;8.40;;;;;;;8.19;79.77;100386.90;229370;1197;140196;-74
2021/11/08 21:28:31;;;;;;;9.30;7.50;;;;;;;8.20;79.84;100391.39;227956;1198;140779;-66
2021/11/08 21:38:59;;;;;;;11.00;7.70;;;;;;;8.29;79.93;100385.01;227443;1199;140490;-71
2021/11/08 21:44:26;;;;;;;11.20;8.70;;;;;;;8.29;80.07;100391.34;227161;1198;139223;-70
2021/11/08 21:49:29;;;;;;;10.10;7.20;;;;;;;8.26;79.72;100395.48;226881;1197;141182;-79
2021/11/08 21:54:36;;;;;;;12.00;9.00;;;;;;;8.23;79.76;100403.02;226097;1198;141732;-69
2021/11/08 21:59:42;;;;;;;15.20;11.40;;;;;;;8.24;80.12;100408.14;228139;1197;139847;-72
2021/11/08 22:04:47;;;;;;;14.00;9.10;;;;;;;8.28;80.22;100410.30;227502;1198;139379;-75
2021/11/08 22:09:50;;;;;;;8.80;7.10;;;;;;;8.34;80.24;100410.95;226555;1198;141653;-73
2021/11/08 22:14:56;;;;;;;10.80;7.40;;;;;;;8.38;80.36;100407.60;226550;1199;141554;-76
2021/11/08 22:20:00;;;;;;;9.20;7.50;;;;;;;8.34;80.24;100416.47;226892;1200;151151;-73
2021/11/08 22:25:04;;;;;;;11.60;8.00;;;;;;;8.35;80.22;100423.59;226808;1198;139815;-75
2021/11/08 22:30:09;;;;;;;9.10;7.60;;;;;;;8.30;80.19;100427.55;228334;1197;139924;-75
2021/11/08 22:35:17;;;;;;;10.00;8.00;;;;;;;8.26;80.21;100432.45;226446;1196;141095;-72
2021/11/08 22:40:23;;;;;;;11.40;6.60;;;;;;;8.29;80.54;100437.44;227830;1198;139968;-83
2021/11/08 22:45:42;;;;;;;;;;;;;;;;;;;;;
2021/11/08 22:51:15;;;;;;;;;;;;;;;;;;;;;
2021/11/08 22:56:52;;;;;;;12.20;7.60;;;;;;;8.34;80.58;100445.73;227242;1198;139726;-72
2021/11/08 23:01:56;;;;;;;13.60;10.40;;;;;;;8.42;80.64;100452.37;228017;1198;142014;-71
2021/11/08 23:07:25;;;;;;;14.10;11.50;;;;;;;8.47;80.70;100459.23;226555;1196;140353;-74
2021/11/08 23:12:28;;;;;;;12.30;9.50;;;;;;;8.49;80.86;100465.30;229147;1197;141539;-71
2021/11/08 23:17:31;;;;;;;9.50;6.60;;;;;;;8.47;80.27;100478.09;229571;1197;140889;-72
2021/11/08 23:22:34;;;;;;;4.20;3.80;;;;;;;8.27;79.74;100493.64;229590;1196;140115;-71
2021/11/08 23:27:37;;;;;;;3.50;2.80;;;;;;;7.99;79.29;100496.45;229415;1198;139378;-72
2021/11/08 23:32:41;;;;;;;2.30;2.10;;;;;;;7.74;79.24;100509.70;229429;1197;141530;-70
2021/11/08 23:38:03;;;;;;;;;;;;;;;;;;;;;
2021/11/08 23:43:08;;;;;;;6.10;3.70;;;;;;;7.38;79.63;100529.06;227949;1197;140380;-78
2021/11/08 23:48:16;;;;;;;3.40;2.90;;;;;;;7.23;79.89;100539.16;226490;1198;140786;-72
2021/11/08 23:53:19;;;;;;;3.90;2.90;;;;;;;7.10;80.00;100547.86;227708;1198;141306;-75
2021/11/08 23:58:22;;;;;;;3.20;2.90;;;;;;;7.02;79.96;100554.91;227286;1198;140056;-76
